sensor_id;sensor_type;location;lat;lon;timestamp;temperature;humidity
59307;DHT22;47983;53.016;-2.260;2023-04-03T00:01:21;4.10;99.90
59307;DHT22;47983;53.016;-2.260;2023-04-03T00:03:49;4.10;99.90
59307;DHT22;47983;53.016;-2.260;2023-04-03T00:06:17;4.00;99.90
59307;DHT22;47983;53.016;-2.260;2023-04-03T00:08:45;4.00;99.90
59307;DHT22;47983;53.016;-2.260;2023-04-03T00:11:13;4.00;99.90
59307;DHT22;47983;53.016;-2.260;2023-04-03T00:13:41;3.90;99.90
59307;DHT22;47983;53.016;-2.260;2023-04-03T00:16:10;3.90;99.90
59307;DHT22;47983;53.016;-2.260;2023-04-03T00:18:38;3.90;99.90
59307;DHT22;47983;53.016;-2.260;2023-04-03T00:21:07;3.90;99.90
59307;DHT22;47983;53.016;-2.260;2023-04-03T00:23:34;3.90;99.90
59307;DHT22;47983;53.016;-2.260;2023-04-03T00:26:02;3.90;99.90
59307;DHT22;47983;53.016;-2.260;2023-04-03T00:28:30;3.80;99.90
59307;DHT22;47983;53.016;-2.260;2023-04-03T00:30:58;3.80;99.90
59307;DHT22;47983;53.016;-2.260;2023-04-03T00:33:25;3.80;99.90
59307;DHT22;47983;53.016;-2.260;2023-04-03T00:35:53;3.80;99.90
59307;DHT22;47983;53.016;-2.260;2023-04-03T00:38:21;3.80;99.90
59307;DHT22;47983;53.016;-2.260;2023-04-03T00:40:49;3.70;99.90
59307;DHT22;47983;53.016;-2.260;2023-04-03T00:43:22;3.70;99.90
59307;DHT22;47983;53.016;-2.260;2023-04-03T00:45:53;3.70;99.90
59307;DHT22;47983;53.016;-2.260;2023-04-03T00:48:40;3.60;99.90
59307;DHT22;47983;53.016;-2.260;2023-04-03T00:51:13;3.60;99.90
59307;DHT22;47983;53.016;-2.260;2023-04-03T00:53:46;3.60;99.90
59307;DHT22;47983;53.016;-2.260;2023-04-03T00:56:16;3.60;99.90
59307;DHT22;47983;53.016;-2.260;2023-04-03T00:59:00;3.60;99.90
59307;DHT22;47983;53.016;-2.260;2023-04-03T01:01:30;3.60;99.90
59307;DHT22;47983;53.016;-2.260;2023-04-03T01:04:00;3.50;99.90
59307;DHT22;47983;53.016;-2.260;2023-04-03T01:06:34;0.40;99.90
59307;DHT22;47983;53.016;-2.260;2023-04-03T01:09:07;3.50;99.90
59307;DHT22;47983;53.016;-2.260;2023-04-03T01:11:38;3.50;99.90
59307;DHT22;47983;53.016;-2.260;2023-04-03T01:14:09;3.50;99.90
59307;DHT22;47983;53.016;-2.260;2023-04-03T01:16:37;3.40;99.90
59307;DHT22;47983;53.016;-2.260;2023-04-03T01:19:08;3.40;99.90
59307;DHT22;47983;53.016;-2.260;2023-04-03T01:21:49;3.40;99.90
59307;DHT22;47983;53.016;-2.260;2023-04-03T01:24:30;3.40;99.90
59307;DHT22;47983;53.016;-2.260;2023-04-03T01:27:03;3.30;99.90
59307;DHT22;47983;53.016;-2.260;2023-04-03T01:29:31;3.30;99.90
59307;DHT22;47983;53.016;-2.260;2023-04-03T01:32:00;3.30;99.90
59307;DHT22;47983;53.016;-2.260;2023-04-03T01:34:29;3.30;99.90
59307;DHT22;47983;53.016;-2.260;2023-04-03T01:36:57;3.30;99.90
59307;DHT22;47983;53.016;-2.260;2023-04-03T01:39:30;3.20;99.90
59307;DHT22;47983;53.016;-2.260;2023-04-03T01:41:58;3.20;99.90
59307;DHT22;47983;53.016;-2.260;2023-04-03T01:44:31;3.20;99.90
59307;DHT22;47983;53.016;-2.260;2023-04-03T01:46:59;3.20;99.90
59307;DHT22;47983;53.016;-2.260;2023-04-03T01:51:56;3.20;99.90
59307;DHT22;47983;53.016;-2.260;2023-04-03T01:54:27;3.10;99.90
59307;DHT22;47983;53.016;-2.260;2023-04-03T01:56:54;3.10;99.90
59307;DHT22;47983;53.016;-2.260;2023-04-03T01:59:22;3.10;99.90
59307;DHT22;47983;53.016;-2.260;2023-04-03T02:01:51;3.10;99.90
59307;DHT22;47983;53.016;-2.260;2023-04-03T02:04:18;3.00;99.90
59307;DHT22;47983;53.016;-2.260;2023-04-03T02:06:47;3.00;99.90
59307;DHT22;47983;53.016;-2.260;2023-04-03T02:09:14;2.90;99.90
59307;DHT22;47983;53.016;-2.260;2023-04-03T02:11:42;3.00;99.90
59307;DHT22;47983;53.016;-2.260;2023-04-03T02:14:10;2.90;99.90
59307;DHT22;47983;53.016;-2.260;2023-04-03T02:16:38;2.90;99.90
59307;DHT22;47983;53.016;-2.260;2023-04-03T02:19:06;2.90;99.90
59307;DHT22;47983;53.016;-2.260;2023-04-03T02:21:34;2.90;99.90
59307;DHT22;47983;53.016;-2.260;2023-04-03T02:24:02;2.90;99.90
59307;DHT22;47983;53.016;-2.260;2023-04-03T02:26:29;2.80;99.90
59307;DHT22;47983;53.016;-2.260;2023-04-03T02:28:57;2.80;99.90
59307;DHT22;47983;53.016;-2.260;2023-04-03T02:31:25;2.70;99.90
59307;DHT22;47983;53.016;-2.260;2023-04-03T02:33:56;2.80;99.90
59307;DHT22;47983;53.016;-2.260;2023-04-03T02:36:23;2.70;99.90
59307;DHT22;47983;53.016;-2.260;2023-04-03T02:38:58;2.70;99.90
59307;DHT22;47983;53.016;-2.260;2023-04-03T02:41:28;2.70;99.90
59307;DHT22;47983;53.016;-2.260;2023-04-03T02:44:05;2.60;99.90
59307;DHT22;47983;53.016;-2.260;2023-04-03T02:46:34;2.60;99.90
59307;DHT22;47983;53.016;-2.260;2023-04-03T02:49:03;2.60;99.90
59307;DHT22;47983;53.016;-2.260;2023-04-03T02:51:30;2.60;99.90
59307;DHT22;47983;53.016;-2.260;2023-04-03T02:54:01;2.50;99.90
59307;DHT22;47983;53.016;-2.260;2023-04-03T02:56:32;2.50;99.90
59307;DHT22;47983;53.016;-2.260;2023-04-03T02:58:59;2.50;99.90
59307;DHT22;47983;53.016;-2.260;2023-04-03T03:01:28;2.30;99.90
59307;DHT22;47983;53.016;-2.260;2023-04-03T03:04:02;2.40;99.90
59307;DHT22;47983;53.016;-2.260;2023-04-03T03:06:30;2.30;99.90
59307;DHT22;47983;53.016;-2.260;2023-04-03T03:08:57;2.20;99.90
59307;DHT22;47983;53.016;-2.260;2023-04-03T03:11:25;2.20;99.90
59307;DHT22;47983;53.016;-2.260;2023-04-03T03:13:53;2.20;99.90
59307;DHT22;47983;53.016;-2.260;2023-04-03T03:16:21;2.30;99.90
59307;DHT22;47983;53.016;-2.260;2023-04-03T03:18:49;2.20;99.90
59307;DHT22;47983;53.016;-2.260;2023-04-03T03:21:17;2.10;99.90
59307;DHT22;47983;53.016;-2.260;2023-04-03T03:23:48;2.10;99.90
59307;DHT22;47983;53.016;-2.260;2023-04-03T03:26:15;2.10;99.90
59307;DHT22;47983;53.016;-2.260;2023-04-03T03:28:43;2.10;99.90
59307;DHT22;47983;53.016;-2.260;2023-04-03T03:31:12;2.10;99.90
59307;DHT22;47983;53.016;-2.260;2023-04-03T03:33:40;2.10;99.90
59307;DHT22;47983;53.016;-2.260;2023-04-03T03:36:08;2.10;99.90
59307;DHT22;47983;53.016;-2.260;2023-04-03T03:38:36;2.10;99.90
59307;DHT22;47983;53.016;-2.260;2023-04-03T03:41:06;2.00;99.90
59307;DHT22;47983;53.016;-2.260;2023-04-03T03:43:35;2.00;99.90
59307;DHT22;47983;53.016;-2.260;2023-04-03T03:46:04;2.00;99.90
59307;DHT22;47983;53.016;-2.260;2023-04-03T03:48:32;2.00;99.90
59307;DHT22;47983;53.016;-2.260;2023-04-03T03:51:02;1.90;99.90
59307;DHT22;47983;53.016;-2.260;2023-04-03T03:53:34;1.90;99.90
59307;DHT22;47983;53.016;-2.260;2023-04-03T03:56:06;1.90;99.90
59307;DHT22;47983;53.016;-2.260;2023-04-03T03:58:36;1.90;99.90
59307;DHT22;47983;53.016;-2.260;2023-04-03T04:01:05;1.90;99.90
59307;DHT22;47983;53.016;-2.260;2023-04-03T04:03:39;1.90;99.90
59307;DHT22;47983;53.016;-2.260;2023-04-03T04:06:09;1.90;99.90
59307;DHT22;47983;53.016;-2.260;2023-04-03T04:08:37;1.90;99.90
59307;DHT22;47983;53.016;-2.260;2023-04-03T04:11:07;1.80;99.90
59307;DHT22;47983;53.016;-2.260;2023-04-03T04:13:35;1.90;99.90
59307;DHT22;47983;53.016;-2.260;2023-04-03T04:16:04;1.80;99.90
59307;DHT22;47983;53.016;-2.260;2023-04-03T04:18:33;1.80;99.90
59307;DHT22;47983;53.016;-2.260;2023-04-03T04:21:01;1.80;99.90
59307;DHT22;47983;53.016;-2.260;2023-04-03T04:23:31;1.80;99.90
59307;DHT22;47983;53.016;-2.260;2023-04-03T04:26:01;1.80;99.90
59307;DHT22;47983;53.016;-2.260;2023-04-03T04:28:32;1.70;99.90
59307;DHT22;47983;53.016;-2.260;2023-04-03T04:31:03;1.80;99.90
59307;DHT22;47983;53.016;-2.260;2023-04-03T04:33:31;1.70;99.90
59307;DHT22;47983;53.016;-2.260;2023-04-03T04:36:02;1.70;99.90
59307;DHT22;47983;53.016;-2.260;2023-04-03T04:38:31;1.70;99.90
59307;DHT22;47983;53.016;-2.260;2023-04-03T04:40:58;1.70;99.90
59307;DHT22;47983;53.016;-2.260;2023-04-03T04:46:06;1.70;99.90
59307;DHT22;47983;53.016;-2.260;2023-04-03T04:48:39;1.70;99.90
59307;DHT22;47983;53.016;-2.260;2023-04-03T04:51:09;1.70;99.90
59307;DHT22;47983;53.016;-2.260;2023-04-03T04:53:38;1.60;99.90
59307;DHT22;47983;53.016;-2.260;2023-04-03T04:56:08;1.60;99.90
59307;DHT22;47983;53.016;-2.260;2023-04-03T04:58:39;1.60;99.90
59307;DHT22;47983;53.016;-2.260;2023-04-03T05:01:10;1.60;99.90
59307;DHT22;47983;53.016;-2.260;2023-04-03T05:03:56;1.60;99.90
59307;DHT22;47983;53.016;-2.260;2023-04-03T05:06:28;1.50;99.90
59307;DHT22;47983;53.016;-2.260;2023-04-03T05:08:57;1.60;99.90
59307;DHT22;47983;53.016;-2.260;2023-04-03T05:11:26;1.50;99.90
59307;DHT22;47983;53.016;-2.260;2023-04-03T05:13:55;1.50;99.90
59307;DHT22;47983;53.016;-2.260;2023-04-03T05:16:24;1.40;99.90
59307;DHT22;47983;53.016;-2.260;2023-04-03T05:18:53;1.40;99.90
59307;DHT22;47983;53.016;-2.260;2023-04-03T05:21:23;1.40;99.90
59307;DHT22;47983;53.016;-2.260;2023-04-03T05:23:54;1.40;99.90
59307;DHT22;47983;53.016;-2.260;2023-04-03T05:26:21;1.40;99.90
59307;DHT22;47983;53.016;-2.260;2023-04-03T05:28:51;1.30;99.90
59307;DHT22;47983;53.016;-2.260;2023-04-03T05:31:19;1.30;99.90
59307;DHT22;47983;53.016;-2.260;2023-04-03T05:33:56;1.30;99.90
59307;DHT22;47983;53.016;-2.260;2023-04-03T05:36:29;1.30;99.90
59307;DHT22;47983;53.016;-2.260;2023-04-03T05:39:03;1.20;99.90
59307;DHT22;47983;53.016;-2.260;2023-04-03T05:41:32;1.20;99.90
59307;DHT22;47983;53.016;-2.260;2023-04-03T05:44:00;1.30;99.90
59307;DHT22;47983;53.016;-2.260;2023-04-03T05:46:28;1.20;99.90
59307;DHT22;47983;53.016;-2.260;2023-04-03T05:48:58;1.30;99.90
59307;DHT22;47983;53.016;-2.260;2023-04-03T05:51:34;1.20;99.90
59307;DHT22;47983;53.016;-2.260;2023-04-03T05:54:26;1.20;99.90
59307;DHT22;47983;53.016;-2.260;2023-04-03T05:57:05;1.10;99.90
59307;DHT22;47983;53.016;-2.260;2023-04-03T05:59:33;1.20;99.90
59307;DHT22;47983;53.016;-2.260;2023-04-03T06:02:01;1.20;99.90
59307;DHT22;47983;53.016;-2.260;2023-04-03T06:04:29;1.20;99.90
59307;DHT22;47983;53.016;-2.260;2023-04-03T06:06:57;1.20;99.90
59307;DHT22;47983;53.016;-2.260;2023-04-03T06:09:28;1.20;99.90
59307;DHT22;47983;53.016;-2.260;2023-04-03T06:11:57;1.20;99.90
59307;DHT22;47983;53.016;-2.260;2023-04-03T06:14:27;1.20;99.90
59307;DHT22;47983;53.016;-2.260;2023-04-03T06:16:58;1.30;99.90
59307;DHT22;47983;53.016;-2.260;2023-04-03T06:19:27;1.30;99.90
59307;DHT22;47983;53.016;-2.260;2023-04-03T06:21:58;1.30;99.90
59307;DHT22;47983;53.016;-2.260;2023-04-03T06:24:26;1.30;99.90
59307;DHT22;47983;53.016;-2.260;2023-04-03T06:26:54;1.30;99.90
59307;DHT22;47983;53.016;-2.260;2023-04-03T06:29:22;1.30;99.90
59307;DHT22;47983;53.016;-2.260;2023-04-03T06:31:50;1.40;99.90
59307;DHT22;47983;53.016;-2.260;2023-04-03T06:34:18;1.40;99.90
59307;DHT22;47983;53.016;-2.260;2023-04-03T06:36:46;1.40;99.90
59307;DHT22;47983;53.016;-2.260;2023-04-03T06:39:16;1.50;99.90
59307;DHT22;47983;53.016;-2.260;2023-04-03T06:41:44;1.50;99.90
59307;DHT22;47983;53.016;-2.260;2023-04-03T06:44:12;1.50;99.90
59307;DHT22;47983;53.016;-2.260;2023-04-03T06:46:43;1.60;99.90
59307;DHT22;47983;53.016;-2.260;2023-04-03T06:49:12;1.60;99.90
59307;DHT22;47983;53.016;-2.260;2023-04-03T06:51:40;1.70;99.90
59307;DHT22;47983;53.016;-2.260;2023-04-03T06:54:07;1.70;99.90
59307;DHT22;47983;53.016;-2.260;2023-04-03T06:56:35;1.00;99.90
59307;DHT22;47983;53.016;-2.260;2023-04-03T06:59:03;1.90;99.90
59307;DHT22;47983;53.016;-2.260;2023-04-03T07:01:32;2.00;99.90
59307;DHT22;47983;53.016;-2.260;2023-04-03T07:04:00;2.10;99.90
59307;DHT22;47983;53.016;-2.260;2023-04-03T07:06:34;2.10;99.90
59307;DHT22;47983;53.016;-2.260;2023-04-03T07:09:05;2.20;99.90
59307;DHT22;47983;53.016;-2.260;2023-04-03T07:14:00;2.40;99.90
59307;DHT22;47983;53.016;-2.260;2023-04-03T07:16:28;2.40;99.90
59307;DHT22;47983;53.016;-2.260;2023-04-03T07:18:58;2.50;99.90
59307;DHT22;47983;53.016;-2.260;2023-04-03T07:21:26;2.60;99.90
59307;DHT22;47983;53.016;-2.260;2023-04-03T07:23:54;2.60;99.90
59307;DHT22;47983;53.016;-2.260;2023-04-03T07:26:22;2.70;99.90
59307;DHT22;47983;53.016;-2.260;2023-04-03T07:28:53;2.80;99.90
59307;DHT22;47983;53.016;-2.260;2023-04-03T07:31:21;2.80;99.90
59307;DHT22;47983;53.016;-2.260;2023-04-03T07:33:51;2.90;99.90
59307;DHT22;47983;53.016;-2.260;2023-04-03T07:36:21;2.90;99.90
59307;DHT22;47983;53.016;-2.260;2023-04-03T07:38:49;3.00;99.90
59307;DHT22;47983;53.016;-2.260;2023-04-03T07:41:19;3.20;99.90
59307;DHT22;47983;53.016;-2.260;2023-04-03T07:43:47;3.30;99.90
59307;DHT22;47983;53.016;-2.260;2023-04-03T07:46:17;3.30;99.90
59307;DHT22;47983;53.016;-2.260;2023-04-03T07:48:45;3.40;99.90
59307;DHT22;47983;53.016;-2.260;2023-04-03T07:51:13;3.40;99.90
59307;DHT22;47983;53.016;-2.260;2023-04-03T07:53:41;3.50;99.90
59307;DHT22;47983;53.016;-2.260;2023-04-03T07:56:09;3.50;99.90
59307;DHT22;47983;53.016;-2.260;2023-04-03T07:58:37;3.70;99.90
59307;DHT22;47983;53.016;-2.260;2023-04-03T08:01:04;3.80;99.90
59307;DHT22;47983;53.016;-2.260;2023-04-03T08:03:33;4.00;99.90
59307;DHT22;47983;53.016;-2.260;2023-04-03T08:06:06;4.10;99.90
59307;DHT22;47983;53.016;-2.260;2023-04-03T08:08:42;4.00;99.90
59307;DHT22;47983;53.016;-2.260;2023-04-03T08:11:10;4.20;99.90
59307;DHT22;47983;53.016;-2.260;2023-04-03T08:13:38;4.30;99.90
59307;DHT22;47983;53.016;-2.260;2023-04-03T08:16:15;4.40;99.90
59307;DHT22;47983;53.016;-2.260;2023-04-03T08:18:44;4.40;99.90
59307;DHT22;47983;53.016;-2.260;2023-04-03T08:21:12;4.50;99.90
59307;DHT22;47983;53.016;-2.260;2023-04-03T08:23:40;4.60;99.90
59307;DHT22;47983;53.016;-2.260;2023-04-03T08:26:10;5.10;99.90
59307;DHT22;47983;53.016;-2.260;2023-04-03T08:28:38;4.80;99.90
59307;DHT22;47983;53.016;-2.260;2023-04-03T08:31:09;4.80;99.90
59307;DHT22;47983;53.016;-2.260;2023-04-03T08:33:39;5.00;99.90
59307;DHT22;47983;53.016;-2.260;2023-04-03T08:36:14;5.10;99.90
59307;DHT22;47983;53.016;-2.260;2023-04-03T08:38:43;5.00;99.90
59307;DHT22;47983;53.016;-2.260;2023-04-03T08:41:15;5.10;99.90
59307;DHT22;47983;53.016;-2.260;2023-04-03T08:49:53;5.30;99.90
59307;DHT22;47983;53.016;-2.260;2023-04-03T08:52:41;5.40;99.90
59307;DHT22;47983;53.016;-2.260;2023-04-03T08:55:31;5.50;99.90
59307;DHT22;47983;53.016;-2.260;2023-04-03T09:01:21;5.50;99.90
59307;DHT22;47983;53.016;-2.260;2023-04-03T09:03:23;5.60;99.90
59307;DHT22;47983;53.016;-2.260;2023-04-03T09:06:02;5.70;99.90
59307;DHT22;47983;53.016;-2.260;2023-04-03T09:11:58;5.90;99.90
59307;DHT22;47983;53.016;-2.260;2023-04-03T09:14:38;6.00;99.90
59307;DHT22;47983;53.016;-2.260;2023-04-03T09:22:52;6.20;99.90
59307;DHT22;47983;53.016;-2.260;2023-04-03T09:27:51;6.30;99.90
59307;DHT22;47983;53.016;-2.260;2023-04-03T09:30:24;6.30;99.90
59307;DHT22;47983;53.016;-2.260;2023-04-03T09:32:55;6.40;99.90
59307;DHT22;47983;53.016;-2.260;2023-04-03T09:35:32;6.50;99.90
59307;DHT22;47983;53.016;-2.260;2023-04-03T09:41:05;6.60;99.90
59307;DHT22;47983;53.016;-2.260;2023-04-03T09:43:34;6.70;99.90
59307;DHT22;47983;53.016;-2.260;2023-04-03T09:46:32;6.90;99.90
59307;DHT22;47983;53.016;-2.260;2023-04-03T09:49:04;6.90;99.90
59307;DHT22;47983;53.016;-2.260;2023-04-03T09:51:36;7.00;99.90
59307;DHT22;47983;53.016;-2.260;2023-04-03T09:57:04;7.20;99.90
59307;DHT22;47983;53.016;-2.260;2023-04-03T09:59:33;7.30;99.90
59307;DHT22;47983;53.016;-2.260;2023-04-03T10:02:22;7.40;99.90
59307;DHT22;47983;53.016;-2.260;2023-04-03T10:04:51;7.40;99.90
59307;DHT22;47983;53.016;-2.260;2023-04-03T10:07:36;7.40;99.90
59307;DHT22;47983;53.016;-2.260;2023-04-03T10:12:46;7.50;99.90
59307;DHT22;47983;53.016;-2.260;2023-04-03T10:15:15;7.50;99.90
59307;DHT22;47983;53.016;-2.260;2023-04-03T10:18:00;7.50;99.90
59307;DHT22;47983;53.016;-2.260;2023-04-03T10:20:49;7.50;99.90
59307;DHT22;47983;53.016;-2.260;2023-04-03T10:23:26;7.60;99.90
59307;DHT22;47983;53.016;-2.260;2023-04-03T10:26:00;7.80;99.90
59307;DHT22;47983;53.016;-2.260;2023-04-03T10:28:45;8.00;99.90
59307;DHT22;47983;53.016;-2.260;2023-04-03T10:31:29;8.00;99.90
59307;DHT22;47983;53.016;-2.260;2023-04-03T10:45:16;8.50;99.90
59307;DHT22;47983;53.016;-2.260;2023-04-03T10:56:38;9.10;99.90
59307;DHT22;47983;53.016;-2.260;2023-04-03T10:59:25;9.10;99.90
59307;DHT22;47983;53.016;-2.260;2023-04-03T11:02:00;9.10;99.90
59307;DHT22;47983;53.016;-2.260;2023-04-03T11:04:35;9.20;99.90
59307;DHT22;47983;53.016;-2.260;2023-04-03T11:07:10;9.30;99.90
59307;DHT22;47983;53.016;-2.260;2023-04-03T11:09:42;9.40;99.90
59307;DHT22;47983;53.016;-2.260;2023-04-03T11:15:02;9.60;99.90
59307;DHT22;47983;53.016;-2.260;2023-04-03T11:17:37;9.50;99.90
59307;DHT22;47983;53.016;-2.260;2023-04-03T11:22:51;9.50;99.90
59307;DHT22;47983;53.016;-2.260;2023-04-03T11:25:24;9.50;99.90
59307;DHT22;47983;53.016;-2.260;2023-04-03T11:28:05;9.60;99.90
59307;DHT22;47983;53.016;-2.260;2023-04-03T11:35:49;10.30;99.90
59307;DHT22;47983;53.016;-2.260;2023-04-03T11:38:27;10.50;99.90
59307;DHT22;47983;53.016;-2.260;2023-04-03T11:40:57;11.20;99.90
59307;DHT22;47983;53.016;-2.260;2023-04-03T11:43:30;10.50;99.90
59307;DHT22;47983;53.016;-2.260;2023-04-03T11:46:06;10.50;99.90
59307;DHT22;47983;53.016;-2.260;2023-04-03T11:51:39;10.60;99.90
59307;DHT22;47983;53.016;-2.260;2023-04-03T11:53:50;10.80;99.90
59307;DHT22;47983;53.016;-2.260;2023-04-03T12:01:55;11.60;99.90
59307;DHT22;47983;53.016;-2.260;2023-04-03T12:04:25;11.60;99.90
59307;DHT22;47983;53.016;-2.260;2023-04-03T12:07:18;11.70;99.90
59307;DHT22;47983;53.016;-2.260;2023-04-03T12:12:40;12.60;99.90
59307;DHT22;47983;53.016;-2.260;2023-04-03T12:15:23;12.60;99.90
59307;DHT22;47983;53.016;-2.260;2023-04-03T12:17:51;13.10;99.90
59307;DHT22;47983;53.016;-2.260;2023-04-03T12:20:56;13.50;99.90
59307;DHT22;47983;53.016;-2.260;2023-04-03T12:23:36;13.60;97.90
59307;DHT22;47983;53.016;-2.260;2023-04-03T12:28:45;13.90;99.00
59307;DHT22;47983;53.016;-2.260;2023-04-03T12:31:16;14.40;98.00
59307;DHT22;47983;53.016;-2.260;2023-04-03T12:34:12;14.40;98.50
59307;DHT22;47983;53.016;-2.260;2023-04-03T12:36:50;14.70;97.00
59307;DHT22;47983;53.016;-2.260;2023-04-03T12:39:51;15.00;95.90
59307;DHT22;47983;53.016;-2.260;2023-04-03T12:42:44;15.00;93.50
59307;DHT22;47983;53.016;-2.260;2023-04-03T12:45:25;15.00;93.40
59307;DHT22;47983;53.016;-2.260;2023-04-03T12:47:55;15.20;94.30
59307;DHT22;47983;53.016;-2.260;2023-04-03T12:50:32;15.30;94.60
59307;DHT22;47983;53.016;-2.260;2023-04-03T12:53:27;15.50;93.20
59307;DHT22;47983;53.016;-2.260;2023-04-03T12:55:55;15.70;92.20
59307;DHT22;47983;53.016;-2.260;2023-04-03T12:58:27;15.90;91.70
59307;DHT22;47983;53.016;-2.260;2023-04-03T13:00:59;16.10;90.10
59307;DHT22;47983;53.016;-2.260;2023-04-03T13:03:39;16.20;87.60
59307;DHT22;47983;53.016;-2.260;2023-04-03T13:06:11;16.10;88.10
59307;DHT22;47983;53.016;-2.260;2023-04-03T13:08:49;16.10;85.50
59307;DHT22;47983;53.016;-2.260;2023-04-03T13:11:17;15.90;84.90
59307;DHT22;47983;53.016;-2.260;2023-04-03T13:14:05;16.00;88.50
59307;DHT22;47983;53.016;-2.260;2023-04-03T13:16:40;16.00;88.30
59307;DHT22;47983;53.016;-2.260;2023-04-03T13:19:17;16.10;88.70
59307;DHT22;47983;53.016;-2.260;2023-04-03T13:21:45;16.50;90.20
59307;DHT22;47983;53.016;-2.260;2023-04-03T13:24:14;16.60;83.00
59307;DHT22;47983;53.016;-2.260;2023-04-03T13:26:42;16.80;82.80
59307;DHT22;47983;53.016;-2.260;2023-04-03T13:29:29;16.90;80.00
59307;DHT22;47983;53.016;-2.260;2023-04-03T13:32:02;16.90;80.40
59307;DHT22;47983;53.016;-2.260;2023-04-03T13:34:42;17.20;80.80
59307;DHT22;47983;53.016;-2.260;2023-04-03T13:37:28;17.20;80.80
59307;DHT22;47983;53.016;-2.260;2023-04-03T13:40:08;17.40;79.30
59307;DHT22;47983;53.016;-2.260;2023-04-03T13:42:40;17.40;79.30
59307;DHT22;47983;53.016;-2.260;2023-04-03T13:45:22;17.70;77.10
59307;DHT22;47983;53.016;-2.260;2023-04-03T13:47:53;17.70;76.40
59307;DHT22;47983;53.016;-2.260;2023-04-03T13:50:24;17.80;78.10
59307;DHT22;47983;53.016;-2.260;2023-04-03T13:53:01;17.90;78.70
59307;DHT22;47983;53.016;-2.260;2023-04-03T13:55:35;18.10;72.10
59307;DHT22;47983;53.016;-2.260;2023-04-03T14:03:42;17.80;74.80
59307;DHT22;47983;53.016;-2.260;2023-04-03T14:06:14;17.40;76.60
59307;DHT22;47983;53.016;-2.260;2023-04-03T14:08:43;16.40;75.80
59307;DHT22;47983;53.016;-2.260;2023-04-03T14:11:21;16.40;76.00
59307;DHT22;47983;53.016;-2.260;2023-04-03T14:13:50;15.70;76.60
59307;DHT22;47983;53.016;-2.260;2023-04-03T14:16:20;15.50;79.80
59307;DHT22;47983;53.016;-2.260;2023-04-03T14:18:51;15.00;81.50
59307;DHT22;47983;53.016;-2.260;2023-04-03T14:21:19;14.60;82.00
59307;DHT22;47983;53.016;-2.260;2023-04-03T14:23:49;14.30;84.90
59307;DHT22;47983;53.016;-2.260;2023-04-03T14:26:20;14.00;87.70
59307;DHT22;47983;53.016;-2.260;2023-04-03T14:28:51;13.60;90.60
59307;DHT22;47983;53.016;-2.260;2023-04-03T14:31:20;13.50;90.90
59307;DHT22;47983;53.016;-2.260;2023-04-03T14:33:49;13.40;92.60
59307;DHT22;47983;53.016;-2.260;2023-04-03T14:36:21;13.40;92.80
59307;DHT22;47983;53.016;-2.260;2023-04-03T14:38:53;13.30;92.50
59307;DHT22;47983;53.016;-2.260;2023-04-03T14:41:23;13.20;93.50
59307;DHT22;47983;53.016;-2.260;2023-04-03T14:43:51;13.10;93.30
59307;DHT22;47983;53.016;-2.260;2023-04-03T14:46:33;13.00;93.30
59307;DHT22;47983;53.016;-2.260;2023-04-03T14:49:26;12.90;93.60
59307;DHT22;47983;53.016;-2.260;2023-04-03T14:51:57;12.90;93.90
59307;DHT22;47983;53.016;-2.260;2023-04-03T14:54:28;12.70;93.40
59307;DHT22;47983;53.016;-2.260;2023-04-03T14:56:58;12.60;93.80
59307;DHT22;47983;53.016;-2.260;2023-04-03T14:59:27;12.60;94.30
59307;DHT22;47983;53.016;-2.260;2023-04-03T15:01:55;12.50;93.90
59307;DHT22;47983;53.016;-2.260;2023-04-03T15:04:23;12.50;94.10
59307;DHT22;47983;53.016;-2.260;2023-04-03T15:06:52;12.50;94.00
59307;DHT22;47983;53.016;-2.260;2023-04-03T15:09:25;12.40;95.30
59307;DHT22;47983;53.016;-2.260;2023-04-03T15:11:54;12.40;95.60
59307;DHT22;47983;53.016;-2.260;2023-04-03T15:14:22;12.40;95.10
59307;DHT22;47983;53.016;-2.260;2023-04-03T15:17:05;12.30;96.20
59307;DHT22;47983;53.016;-2.260;2023-04-03T15:19:37;12.30;96.00
59307;DHT22;47983;53.016;-2.260;2023-04-03T15:22:05;12.30;96.00
59307;DHT22;47983;53.016;-2.260;2023-04-03T15:24:33;12.20;96.80
59307;DHT22;47983;53.016;-2.260;2023-04-03T15:27:01;12.10;97.40
59307;DHT22;47983;53.016;-2.260;2023-04-03T15:29:30;12.10;98.00
59307;DHT22;47983;53.016;-2.260;2023-04-03T15:31:57;12.20;97.90
59307;DHT22;47983;53.016;-2.260;2023-04-03T15:34:25;12.10;97.80
59307;DHT22;47983;53.016;-2.260;2023-04-03T15:36:53;12.10;98.00
59307;DHT22;47983;53.016;-2.260;2023-04-03T15:39:21;12.20;97.90
59307;DHT22;47983;53.016;-2.260;2023-04-03T15:41:50;12.20;97.30
59307;DHT22;47983;53.016;-2.260;2023-04-03T15:44:19;12.10;97.70
59307;DHT22;47983;53.016;-2.260;2023-04-03T15:46:48;12.00;98.40
59307;DHT22;47983;53.016;-2.260;2023-04-03T15:49:19;12.10;99.20
59307;DHT22;47983;53.016;-2.260;2023-04-03T15:51:48;12.10;99.30
59307;DHT22;47983;53.016;-2.260;2023-04-03T15:54:16;12.10;98.70
59307;DHT22;47983;53.016;-2.260;2023-04-03T15:56:44;12.10;97.90
59307;DHT22;47983;53.016;-2.260;2023-04-03T16:01:40;12.10;98.10
59307;DHT22;47983;53.016;-2.260;2023-04-03T16:04:08;12.10;98.80
59307;DHT22;47983;53.016;-2.260;2023-04-03T16:06:37;12.10;98.60
59307;DHT22;47983;53.016;-2.260;2023-04-03T16:09:06;12.10;99.30
59307;DHT22;47983;53.016;-2.260;2023-04-03T16:11:34;12.00;99.40
59307;DHT22;47983;53.016;-2.260;2023-04-03T16:14:03;12.10;99.40
59307;DHT22;47983;53.016;-2.260;2023-04-03T16:16:31;12.00;99.30
59307;DHT22;47983;53.016;-2.260;2023-04-03T16:18:59;12.00;98.90
59307;DHT22;47983;53.016;-2.260;2023-04-03T16:21:28;12.00;99.50
59307;DHT22;47983;53.016;-2.260;2023-04-03T16:23:57;11.90;99.60
59307;DHT22;47983;53.016;-2.260;2023-04-03T16:26:28;11.90;99.30
59307;DHT22;47983;53.016;-2.260;2023-04-03T16:28:55;11.90;99.60
59307;DHT22;47983;53.016;-2.260;2023-04-03T16:31:24;11.90;99.90
59307;DHT22;47983;53.016;-2.260;2023-04-03T16:33:52;11.90;99.90
59307;DHT22;47983;53.016;-2.260;2023-04-03T16:36:20;11.90;99.90
59307;DHT22;47983;53.016;-2.260;2023-04-03T16:38:48;11.80;99.80
59307;DHT22;47983;53.016;-2.260;2023-04-03T16:41:15;11.80;99.90
59307;DHT22;47983;53.016;-2.260;2023-04-03T16:43:43;11.80;99.90
59307;DHT22;47983;53.016;-2.260;2023-04-03T16:46:11;11.80;99.90
59307;DHT22;47983;53.016;-2.260;2023-04-03T16:48:38;11.80;99.90
59307;DHT22;47983;53.016;-2.260;2023-04-03T16:51:06;11.80;99.90
59307;DHT22;47983;53.016;-2.260;2023-04-03T16:53:34;11.80;99.90
59307;DHT22;47983;53.016;-2.260;2023-04-03T16:56:05;11.70;99.90
59307;DHT22;47983;53.016;-2.260;2023-04-03T16:58:33;11.70;99.90
59307;DHT22;47983;53.016;-2.260;2023-04-03T17:01:15;11.60;99.90
59307;DHT22;47983;53.016;-2.260;2023-04-03T17:03:44;11.80;99.90
59307;DHT22;47983;53.016;-2.260;2023-04-03T17:06:15;11.60;99.90
59307;DHT22;47983;53.016;-2.260;2023-04-03T17:08:45;11.60;99.90
59307;DHT22;47983;53.016;-2.260;2023-04-03T17:11:27;11.50;99.90
59307;DHT22;47983;53.016;-2.260;2023-04-03T17:13:58;11.40;99.90
59307;DHT22;47983;53.016;-2.260;2023-04-03T17:16:25;11.50;99.90
59307;DHT22;47983;53.016;-2.260;2023-04-03T17:18:54;11.40;99.90
59307;DHT22;47983;53.016;-2.260;2023-04-03T17:21:22;11.40;99.90